createdAt,value
2019-04-07T00:00:57.784Z,20.40
2019-04-07T00:01:58.294Z,20.40
2019-04-07T00:02:57.719Z,20.40
2019-04-07T00:03:57.710Z,20.40
2019-04-07T00:05:09.325Z,20.40
2019-04-07T00:05:57.717Z,20.40
2019-04-07T00:06:57.779Z,17.50
2019-04-07T00:07:57.711Z,17.50
2019-04-07T00:08:57.713Z,17.50
2019-04-07T00:09:57.711Z,17.50
2019-04-07T00:10:57.882Z,17.50
2019-04-07T00:11:57.716Z,17.50
2019-04-07T00:12:57.783Z,17.50
2019-04-07T00:13:57.952Z,17.50
2019-04-07T00:14:57.719Z,17.50
2019-04-07T00:15:57.846Z,17.50
2019-04-07T00:16:57.749Z,19.30
2019-04-07T00:17:57.819Z,19.30
2019-04-07T00:18:57.817Z,19.30
2019-04-07T00:19:57.822Z,19.30
2019-04-07T00:20:58.482Z,19.30
2019-04-07T00:21:57.730Z,19.30
2019-04-07T00:22:58.231Z,19.30
2019-04-07T00:23:57.966Z,19.30
2019-04-07T00:24:58.304Z,19.30
2019-04-07T00:25:57.804Z,19.30
2019-04-07T00:26:57.847Z,21.30
2019-04-07T00:27:57.697Z,21.30
2019-04-07T00:28:57.840Z,21.30
2019-04-07T00:29:57.932Z,21.30
2019-04-07T00:30:57.740Z,21.30
2019-04-07T00:31:57.845Z,21.30
2019-04-07T00:32:58.380Z,21.30
2019-04-07T00:33:58.212Z,21.30
2019-04-07T00:34:57.788Z,21.30
2019-04-07T00:35:58.175Z,21.30
2019-04-07T00:36:57.824Z,19.30
2019-04-07T00:37:58.306Z,19.30
2019-04-07T00:38:57.799Z,19.30
2019-04-07T00:39:57.817Z,19.30
2019-04-07T00:40:57.801Z,19.30
2019-04-07T00:41:58.280Z,19.30
2019-04-07T00:42:58.324Z,19.30
2019-04-07T00:43:58.172Z,19.30
2019-04-07T00:44:57.810Z,19.30
2019-04-07T00:45:58.009Z,19.30
2019-04-07T00:46:57.741Z,18.50
2019-04-07T00:47:57.748Z,18.50
2019-04-07T00:48:57.868Z,18.50
2019-04-07T00:49:57.855Z,18.50
2019-04-07T00:50:57.829Z,18.50
2019-04-07T00:51:58.406Z,18.50
2019-04-07T00:52:57.770Z,18.50
2019-04-07T00:53:57.772Z,18.50
2019-04-07T00:54:57.778Z,18.50
2019-04-07T00:55:57.796Z,18.50
2019-04-07T00:56:57.834Z,19.90
2019-04-07T00:57:58.371Z,19.90
2019-04-07T00:58:57.843Z,19.90
2019-04-07T00:59:57.789Z,19.90
2019-04-07T01:00:57.846Z,19.90
2019-04-07T01:01:58.057Z,19.90
2019-04-07T01:02:58.271Z,19.90
2019-04-07T01:03:58.398Z,19.90
2019-04-07T01:04:58.361Z,19.90
2019-04-07T01:05:57.795Z,19.90
2019-04-07T01:06:57.824Z,25.30
2019-04-07T01:07:58.403Z,25.30
2019-04-07T01:08:57.921Z,25.30
2019-04-07T01:09:57.752Z,25.30
2019-04-07T01:10:58.015Z,25.30
2019-04-07T01:11:57.760Z,25.30
2019-04-07T01:12:57.838Z,25.30
2019-04-07T01:13:58.163Z,25.30
2019-04-07T01:14:57.830Z,25.30
2019-04-07T01:15:58.055Z,25.30
2019-04-07T01:16:58.298Z,19.60
2019-04-07T01:17:57.842Z,19.60
2019-04-07T01:18:57.999Z,19.60
2019-04-07T01:19:57.859Z,19.60
2019-04-07T01:20:58.312Z,19.60
2019-04-07T01:21:57.859Z,19.60
2019-04-07T01:23:57.873Z,19.60
2019-04-07T01:24:58.503Z,19.60
2019-04-07T01:25:58.485Z,19.60
2019-04-07T01:26:57.781Z,22.60
2019-04-07T01:27:57.824Z,22.60
2019-04-07T01:28:58.151Z,22.60
2019-04-07T01:29:58.010Z,22.60
2019-04-07T01:30:57.946Z,22.60
2019-04-07T01:31:58.427Z,22.60
2019-04-07T01:32:57.763Z,22.60
2019-04-07T01:33:58.667Z,22.60
2019-04-07T01:34:58.119Z,22.60
2019-04-07T01:35:57.750Z,22.60
2019-04-07T01:36:58.362Z,24.50
2019-04-07T01:37:58.318Z,24.50
2019-04-07T01:38:57.846Z,24.50
2019-04-07T01:39:58.063Z,24.50
2019-04-07T01:40:57.812Z,24.50
2019-04-07T01:41:58.399Z,24.50
2019-04-07T01:42:57.850Z,24.50
2019-04-07T01:43:57.768Z,24.50
2019-04-07T01:44:58.419Z,24.50
2019-04-07T01:45:57.754Z,24.50
2019-04-07T01:46:58.146Z,25.20
2019-04-07T01:47:58.416Z,25.20
2019-04-07T01:48:57.765Z,25.20
2019-04-07T01:49:57.848Z,25.20
2019-04-07T01:50:58.153Z,25.20
2019-04-07T01:51:57.790Z,25.20
2019-04-07T01:52:57.994Z,25.20
2019-04-07T01:53:57.757Z,25.20
2019-04-07T01:54:57.739Z,25.20
2019-04-07T01:55:57.823Z,25.20
2019-04-07T01:56:58.098Z,21.40
2019-04-07T01:57:57.794Z,21.40
2019-04-07T01:58:58.296Z,21.40
2019-04-07T01:59:58.195Z,21.40
2019-04-07T02:00:57.793Z,21.40
2019-04-07T02:01:58.105Z,21.40
2019-04-07T02:02:57.796Z,21.40
2019-04-07T02:03:58.432Z,21.40
2019-04-07T02:04:58.024Z,21.40
2019-04-07T02:06:01.739Z,21.40
2019-04-07T02:06:57.975Z,21.20
2019-04-07T02:07:57.817Z,21.20
2019-04-07T02:08:58.331Z,21.20
2019-04-07T02:09:57.815Z,21.20
2019-04-07T02:10:58.261Z,21.20
2019-04-07T02:11:58.345Z,21.20
2019-04-07T02:12:57.958Z,21.20
2019-04-07T02:13:58.380Z,21.20
2019-04-07T02:14:57.908Z,21.20
2019-04-07T02:15:57.915Z,21.20
2019-04-07T02:16:57.905Z,23.40
2019-04-07T02:17:58.207Z,23.40
2019-04-07T02:18:57.853Z,23.40
2019-04-07T02:19:57.845Z,23.40
2019-04-07T02:20:57.842Z,23.40
2019-04-07T02:21:58.282Z,23.40
2019-04-07T02:22:57.875Z,23.40
2019-04-07T02:23:57.842Z,23.40
2019-04-07T02:24:57.841Z,23.40
2019-04-07T02:25:58.187Z,23.40
2019-04-07T02:26:57.809Z,19.90
2019-04-07T02:27:57.887Z,19.90
2019-04-07T02:28:58.413Z,19.90
2019-04-07T02:29:57.946Z,19.90
2019-04-07T02:30:58.891Z,19.90
2019-04-07T02:31:58.482Z,19.90
2019-04-07T02:32:58.307Z,19.90
2019-04-07T02:33:57.825Z,19.90
2019-04-07T02:34:57.886Z,19.90
2019-04-07T02:36:13.284Z,19.90
2019-04-07T02:36:58.259Z,18.80
2019-04-07T02:37:58.018Z,18.80
2019-04-07T02:38:58.236Z,18.80
2019-04-07T02:39:58.726Z,18.80
2019-04-07T02:40:57.959Z,18.80
2019-04-07T02:41:57.857Z,18.80
2019-04-07T02:42:58.869Z,18.80
2019-04-07T02:43:57.875Z,18.80
2019-04-07T02:44:57.906Z,18.80
2019-04-07T02:45:57.978Z,18.80
2019-04-07T02:46:58.825Z,23.70
2019-04-07T02:47:57.967Z,23.70
2019-04-07T02:48:57.838Z,23.70
2019-04-07T02:49:57.830Z,23.70
2019-04-07T02:50:57.900Z,23.70
2019-04-07T02:51:57.829Z,23.70
2019-04-07T02:52:57.897Z,23.70
2019-04-07T02:53:58.419Z,23.70
2019-04-07T02:54:57.903Z,23.70
2019-04-07T02:55:57.849Z,23.70
2019-04-07T02:56:57.882Z,21.70
2019-04-07T02:57:58.246Z,21.70
2019-04-07T02:58:58.156Z,21.70
2019-04-07T02:59:57.964Z,21.70
2019-04-07T03:00:57.842Z,21.70
2019-04-07T03:01:57.869Z,21.70
2019-04-07T03:02:58.145Z,21.70
2019-04-07T03:03:57.917Z,21.70
2019-04-07T03:04:58.595Z,21.70
2019-04-07T03:05:58.267Z,21.70
2019-04-07T03:06:58.674Z,21.10
2019-04-07T03:07:57.925Z,21.10
2019-04-07T03:08:57.929Z,21.10
2019-04-07T03:09:57.869Z,21.10
2019-04-07T03:10:58.694Z,21.10
2019-04-07T03:11:57.967Z,21.10
2019-04-07T03:12:58.743Z,21.10
2019-04-07T03:13:58.603Z,21.10
2019-04-07T03:14:58.456Z,21.10
2019-04-07T03:15:57.958Z,21.10
2019-04-07T03:16:57.947Z,24.80
2019-04-07T03:17:57.955Z,24.80
2019-04-07T03:18:58.061Z,24.80
2019-04-07T03:19:57.897Z,24.80
2019-04-07T03:20:57.997Z,24.80
2019-04-07T03:21:57.914Z,24.80
2019-04-07T03:22:58.776Z,24.80
2019-04-07T03:23:58.575Z,24.80
2019-04-07T03:24:58.270Z,24.80
2019-04-07T03:25:58.209Z,24.80
2019-04-07T03:26:57.900Z,18.90
2019-04-07T03:27:57.924Z,18.90
2019-04-07T03:28:58.094Z,18.90
2019-04-07T03:29:58.939Z,18.90
2019-04-07T03:30:59.156Z,18.90
2019-04-07T03:31:59.663Z,18.90
2019-04-07T03:33:00.490Z,18.90
2019-04-07T03:33:59.503Z,18.90
2019-04-07T03:34:58.284Z,18.90
2019-04-07T03:36:02.081Z,18.90
2019-04-07T03:37:27.067Z,25.50
2019-04-07T03:37:59.099Z,25.50
2019-04-07T03:38:58.990Z,25.50
2019-04-07T03:39:58.776Z,25.50
2019-04-07T03:40:59.010Z,25.50
2019-04-07T03:41:59.039Z,25.50
2019-04-07T03:42:57.890Z,25.50
2019-04-07T03:43:57.954Z,25.50
2019-04-07T03:44:58.693Z,25.50
2019-04-07T03:45:57.985Z,25.50
2019-04-07T03:46:57.877Z,19.50
2019-04-07T03:47:58.843Z,19.50
2019-04-07T03:48:58.083Z,19.50
2019-04-07T03:49:57.833Z,19.50
2019-04-07T03:50:57.825Z,19.50
2019-04-07T03:51:58.193Z,19.50
2019-04-07T03:52:58.446Z,19.50
2019-04-07T03:53:57.906Z,19.50
2019-04-07T03:54:58.774Z,19.50
2019-04-07T03:55:57.914Z,19.50
2019-04-07T03:56:58.400Z,19.50
2019-04-07T03:57:57.907Z,16.50
2019-04-07T03:58:58.007Z,16.50
2019-04-07T03:59:57.940Z,16.50
2019-04-07T04:00:57.900Z,16.50
2019-04-07T04:01:57.957Z,16.50
2019-04-07T04:02:57.976Z,16.50
2019-04-07T04:03:59.172Z,16.50
2019-04-07T04:04:58.110Z,16.50
2019-04-07T04:05:57.852Z,16.50
2019-04-07T04:06:57.981Z,16.50
2019-04-07T04:07:58.078Z,16.80
2019-04-07T04:08:58.679Z,16.80
2019-04-07T04:09:58.301Z,16.80
2019-04-07T04:10:58.128Z,16.80
2019-04-07T04:11:57.956Z,16.80
2019-04-07T04:12:58.655Z,16.80
2019-04-07T04:13:58.286Z,16.80
2019-04-07T04:14:59.812Z,16.80
2019-04-07T04:15:58.867Z,16.80
2019-04-07T04:16:58.020Z,16.80
2019-04-07T04:17:57.993Z,22.60
2019-04-07T04:18:58.688Z,22.60
2019-04-07T04:19:58.662Z,22.60
2019-04-07T04:20:58.047Z,22.60
2019-04-07T04:21:58.887Z,22.60
2019-04-07T04:22:58.329Z,22.60
2019-04-07T04:23:57.925Z,22.60
2019-04-07T04:24:57.985Z,22.60
2019-04-07T04:25:58.955Z,22.60
2019-04-07T04:26:59.144Z,22.60
2019-04-07T04:27:59.109Z,20.30
2019-04-07T04:28:58.341Z,20.30
2019-04-07T04:29:57.964Z,20.30
2019-04-07T04:30:57.995Z,20.30
2019-04-07T04:31:57.980Z,20.30
2019-04-07T04:32:57.990Z,20.30
2019-04-07T04:33:58.099Z,20.30
2019-04-07T04:34:57.928Z,20.30
2019-04-07T04:35:57.955Z,20.30
2019-04-07T04:36:57.998Z,20.30
2019-04-07T04:37:57.931Z,23.99
2019-04-07T04:38:58.069Z,23.99
2019-04-07T04:39:57.930Z,23.99
2019-04-07T04:40:58.167Z,23.99
2019-04-07T04:41:57.923Z,23.99
2019-04-07T04:42:58.165Z,23.99
2019-04-07T04:43:58.143Z,23.99
2019-04-07T04:44:58.859Z,23.99
2019-04-07T04:45:57.926Z,23.99
2019-04-07T04:46:58.363Z,23.99
2019-04-07T04:48:58.736Z,20.80
2019-04-07T04:49:57.912Z,20.80
2019-04-07T04:50:58.076Z,20.80
2019-04-07T04:51:58.647Z,20.80
2019-04-07T04:52:57.972Z,20.80
2019-04-07T04:53:58.386Z,20.80
2019-04-07T04:54:57.877Z,20.80
2019-04-07T04:55:58.905Z,20.80
2019-04-07T04:56:57.950Z,20.80
2019-04-07T04:57:57.949Z,24.00
2019-04-07T04:58:58.483Z,24.00
2019-04-07T04:59:58.050Z,24.00
2019-04-07T05:00:58.883Z,24.00
2019-04-07T05:01:57.985Z,24.00
2019-04-07T05:02:58.177Z,24.00
2019-04-07T05:03:58.410Z,24.00
2019-04-07T05:04:57.979Z,24.00
2019-04-07T05:05:57.860Z,24.00
2019-04-07T05:06:58.098Z,24.00
2019-04-07T05:08:03.395Z,23.80
2019-04-07T05:08:58.119Z,23.80
2019-04-07T05:09:58.789Z,23.80
2019-04-07T05:10:57.935Z,23.80
2019-04-07T05:11:58.711Z,23.80
2019-04-07T05:12:58.184Z,23.80
2019-04-07T05:13:58.178Z,23.80
2019-04-07T05:14:58.117Z,23.80
2019-04-07T05:15:58.000Z,23.80
2019-04-07T05:16:58.605Z,23.80
2019-04-07T05:17:58.192Z,18.80
2019-04-07T05:18:58.506Z,18.80
2019-04-07T05:19:58.024Z,18.80
2019-04-07T05:20:58.242Z,18.80
2019-04-07T05:21:58.236Z,18.80
2019-04-07T05:22:58.627Z,18.80
2019-04-07T05:23:57.942Z,18.80
2019-04-07T05:24:58.175Z,18.80
2019-04-07T05:25:58.282Z,18.80
2019-04-07T05:26:58.523Z,18.80
2019-04-07T05:27:58.598Z,20.30
2019-04-07T05:28:58.281Z,20.30
2019-04-07T05:29:58.008Z,20.30
2019-04-07T05:30:58.030Z,20.30
2019-04-07T05:31:57.935Z,20.30
2019-04-07T05:32:59.017Z,20.30
2019-04-07T05:33:58.597Z,20.30
2019-04-07T05:34:58.014Z,20.30
2019-04-07T05:35:58.309Z,20.30
2019-04-07T05:36:58.700Z,20.30
2019-04-07T05:38:02.625Z,23.60
2019-04-07T05:38:57.957Z,23.60
2019-04-07T05:39:58.025Z,23.60
2019-04-07T05:40:58.653Z,23.60
2019-04-07T05:41:58.067Z,23.60
2019-04-07T05:42:58.693Z,23.60
2019-04-07T05:43:58.037Z,23.60
2019-04-07T05:44:58.533Z,23.60
2019-04-07T05:45:59.175Z,23.60
2019-04-07T05:46:58.210Z,23.60
2019-04-07T05:47:58.023Z,27.10
2019-04-07T05:48:57.949Z,27.10
2019-04-07T05:49:59.606Z,27.10
2019-04-07T05:51:00.476Z,27.10
2019-04-07T05:51:59.538Z,27.10
2019-04-07T05:52:58.744Z,27.10
2019-04-07T05:53:58.108Z,27.10
2019-04-07T05:54:57.960Z,27.10
2019-04-07T05:55:58.043Z,27.10
2019-04-07T05:57:00.370Z,27.10
2019-04-07T05:57:58.687Z,26.99
2019-04-07T05:58:58.141Z,26.99
2019-04-07T05:59:57.993Z,26.99
2019-04-07T06:00:58.688Z,26.99
2019-04-07T06:02:01.312Z,26.99
2019-04-07T06:02:58.257Z,26.99
2019-04-07T06:03:57.987Z,26.99
2019-04-07T06:04:59.489Z,26.99
2019-04-07T06:05:58.100Z,26.99
2019-04-07T06:06:58.158Z,26.99
2019-04-07T06:08:02.628Z,25.40
2019-04-07T06:08:58.617Z,25.40
2019-04-07T06:09:58.771Z,25.40
2019-04-07T06:11:01.563Z,25.40
2019-04-07T06:11:58.701Z,25.40
2019-04-07T06:12:57.965Z,25.40
2019-04-07T06:13:58.042Z,25.40
2019-04-07T06:14:58.496Z,25.40
2019-04-07T06:15:58.714Z,25.40
2019-04-07T06:16:58.189Z,25.40
2019-04-07T06:18:00.564Z,25.60
2019-04-07T06:18:58.867Z,25.60
2019-04-07T06:19:58.058Z,25.60
2019-04-07T06:20:58.528Z,25.60
2019-04-07T06:21:58.046Z,25.60
2019-04-07T06:22:58.454Z,25.60
2019-04-07T06:23:59.891Z,25.60
2019-04-07T06:25:00.766Z,25.60
2019-04-07T06:26:00.022Z,25.60
2019-04-07T06:26:58.673Z,25.60
2019-04-07T06:27:57.980Z,28.90
2019-04-07T06:28:58.821Z,28.90
2019-04-07T06:30:00.071Z,28.90
2019-04-07T06:31:00.209Z,28.90
2019-04-07T06:32:00.000Z,28.90
2019-04-07T06:32:58.098Z,28.90
2019-04-07T06:33:58.055Z,28.90
2019-04-07T06:34:58.429Z,28.90
2019-04-07T06:35:58.163Z,28.90
2019-04-07T06:36:58.214Z,28.90
2019-04-07T06:38:04.000Z,29.40
2019-04-07T06:38:58.221Z,29.40
2019-04-07T06:39:58.077Z,29.40
2019-04-07T06:41:00.859Z,29.40
2019-04-07T06:42:00.372Z,29.40
2019-04-07T06:42:58.033Z,29.40
2019-04-07T06:44:09.001Z,29.40
2019-04-07T06:45:00.347Z,29.40
2019-04-07T06:45:58.462Z,29.40
2019-04-07T06:47:01.303Z,29.40
2019-04-07T06:48:01.151Z,28.90
2019-04-07T06:48:58.014Z,28.90
2019-04-07T06:49:58.536Z,28.90
2019-04-07T06:50:59.749Z,28.90
2019-04-07T06:52:00.798Z,28.90
2019-04-07T06:52:58.835Z,28.90
2019-04-07T06:53:58.081Z,28.90
2019-04-07T06:54:58.019Z,28.90
2019-04-07T06:56:01.001Z,28.90
2019-04-07T06:56:58.099Z,28.90
2019-04-07T06:57:58.295Z,27.20
2019-04-07T06:58:58.176Z,27.20
2019-04-07T06:59:58.015Z,27.20
2019-04-07T07:01:01.355Z,27.20
2019-04-07T07:01:59.432Z,27.20
2019-04-07T07:02:58.918Z,27.20
2019-04-07T07:03:58.537Z,27.20
2019-04-07T07:04:58.289Z,27.20
2019-04-07T07:06:00.208Z,27.20
2019-04-07T07:06:58.018Z,27.20
2019-04-07T07:07:58.039Z,32.20
2019-04-07T07:08:58.375Z,32.20
2019-04-07T07:09:59.928Z,32.20
2019-04-07T07:10:58.457Z,32.20
2019-04-07T07:11:58.818Z,32.20
2019-04-07T07:13:00.966Z,32.20
2019-04-07T07:13:58.810Z,32.20
2019-04-07T07:14:58.299Z,32.20
2019-04-07T07:15:58.565Z,32.20
2019-04-07T07:16:58.735Z,32.20
2019-04-07T07:17:59.250Z,33.50
2019-04-07T07:19:01.028Z,33.50
2019-04-07T07:20:01.736Z,33.50
2019-04-07T07:21:01.704Z,33.50
2019-04-07T07:21:58.038Z,33.50
2019-04-07T07:23:00.380Z,33.50
2019-04-07T07:23:58.013Z,33.50
2019-04-07T07:25:00.282Z,33.50
2019-04-07T07:26:01.015Z,33.50
2019-04-07T07:26:58.104Z,33.50
2019-04-07T07:27:57.945Z,30.00
2019-04-07T07:28:58.435Z,30.00
2019-04-07T07:29:57.946Z,30.00
2019-04-07T07:30:57.953Z,30.00
2019-04-07T07:32:01.918Z,30.00
2019-04-07T07:32:58.008Z,30.00
2019-04-07T07:33:58.249Z,30.00
2019-04-07T07:34:58.708Z,30.00
2019-04-07T07:35:58.278Z,30.00
2019-04-07T07:36:58.902Z,30.00
2019-04-07T07:37:59.527Z,33.30
2019-04-07T07:39:01.687Z,33.30
2019-04-07T07:39:58.052Z,33.30
2019-04-07T07:41:01.002Z,33.30
2019-04-07T07:41:58.426Z,33.30
2019-04-07T07:42:58.978Z,33.30
2019-04-07T07:44:03.199Z,33.30
2019-04-07T07:44:58.307Z,33.30
2019-04-07T07:45:58.968Z,33.30
2019-04-07T07:46:58.212Z,33.30
2019-04-07T07:47:58.087Z,30.00
2019-04-07T07:49:01.086Z,30.00
2019-04-07T07:49:58.651Z,30.00
2019-04-07T07:50:58.106Z,30.00
2019-04-07T07:51:58.191Z,30.00
2019-04-07T07:52:58.253Z,30.00
2019-04-07T07:54:00.558Z,30.00
2019-04-07T07:55:00.767Z,30.00
2019-04-07T07:55:58.098Z,30.00
2019-04-07T07:56:58.107Z,30.00
2019-04-07T07:57:59.288Z,27.90
2019-04-07T07:59:00.032Z,27.90
2019-04-07T07:59:58.546Z,27.90
2019-04-07T08:01:00.150Z,27.90
2019-04-07T08:01:58.721Z,27.90
2019-04-07T08:02:58.298Z,27.90
2019-04-07T08:03:58.631Z,27.90
2019-04-07T08:04:59.280Z,27.90
2019-04-07T08:05:58.962Z,27.90
2019-04-07T08:06:58.050Z,27.90
2019-04-07T08:07:58.066Z,26.30
2019-04-07T08:09:09.844Z,26.30
2019-04-07T08:09:58.157Z,26.30
2019-04-07T08:11:00.654Z,26.30
2019-04-07T08:11:58.802Z,26.30
2019-04-07T08:12:58.549Z,26.30
2019-04-07T08:13:58.066Z,26.30
2019-04-07T08:14:58.641Z,26.30
2019-04-07T08:15:59.407Z,26.30
2019-04-07T08:17:00.226Z,26.30
2019-04-07T08:17:58.540Z,24.40
2019-04-07T08:19:00.214Z,24.40
2019-04-07T08:19:58.819Z,24.40
2019-04-07T08:20:58.896Z,24.40
2019-04-07T08:21:58.451Z,24.40
2019-04-07T08:22:58.107Z,24.40
2019-04-07T08:23:58.970Z,24.40
2019-04-07T08:24:58.815Z,24.40
2019-04-07T08:25:59.068Z,24.40
2019-04-07T08:26:59.093Z,24.40
2019-04-07T08:27:58.211Z,24.90
2019-04-07T08:28:59.003Z,24.90
2019-04-07T08:29:58.322Z,24.90
2019-04-07T08:30:58.696Z,24.90
2019-04-07T08:31:58.738Z,24.90
2019-04-07T08:33:00.272Z,24.90
2019-04-07T08:33:59.973Z,24.90
2019-04-07T08:35:02.677Z,24.90
2019-04-07T08:35:58.901Z,24.90
2019-04-07T08:36:58.498Z,24.90
2019-04-07T08:37:58.517Z,19.10
2019-04-07T08:38:58.489Z,19.10
2019-04-07T08:39:58.085Z,19.10
2019-04-07T08:40:58.646Z,19.10
2019-04-07T08:41:58.265Z,19.10
2019-04-07T08:42:58.320Z,19.10
2019-04-07T08:43:58.087Z,19.10
2019-04-07T08:45:00.309Z,19.10
2019-04-07T08:45:58.153Z,19.10
2019-04-07T08:46:58.985Z,19.10
2019-04-07T08:47:58.164Z,16.60
2019-04-07T08:48:58.104Z,16.60
2019-04-07T08:49:58.174Z,16.60
2019-04-07T08:51:00.451Z,16.60
2019-04-07T08:51:58.994Z,16.60
2019-04-07T08:52:58.962Z,16.60
2019-04-07T08:53:58.541Z,16.60
2019-04-07T08:54:58.171Z,16.60
2019-04-07T08:55:58.841Z,16.60
2019-04-07T08:56:58.517Z,16.60
2019-04-07T08:58:00.971Z,11.60
2019-04-07T08:58:58.114Z,11.60
2019-04-07T08:59:58.882Z,11.60
2019-04-07T09:00:58.559Z,11.60
2019-04-07T09:01:58.153Z,11.60
2019-04-07T09:03:03.709Z,11.60
2019-04-07T09:03:58.560Z,11.60
2019-04-07T09:04:58.173Z,11.60
2019-04-07T09:05:58.548Z,11.60
2019-04-07T09:07:00.675Z,11.60
2019-04-07T09:07:58.118Z,11.20
2019-04-07T09:08:58.198Z,11.20
2019-04-07T09:09:58.729Z,11.20
2019-04-07T09:10:58.238Z,11.20
2019-04-07T09:11:58.184Z,11.20
2019-04-07T09:13:01.742Z,11.20
2019-04-07T09:13:58.798Z,11.20
2019-04-07T09:14:58.365Z,11.20
2019-04-07T09:15:58.931Z,11.20
2019-04-07T09:16:59.123Z,11.20
2019-04-07T09:17:58.933Z,13.99
2019-04-07T09:19:03.761Z,13.99
2019-04-07T09:19:58.305Z,13.99
2019-04-07T09:20:58.106Z,13.99
2019-04-07T09:21:58.180Z,13.99
2019-04-07T09:22:58.302Z,13.99
2019-04-07T09:23:58.179Z,13.99
2019-04-07T09:24:58.879Z,13.99
2019-04-07T09:25:58.390Z,13.99
2019-04-07T09:26:58.819Z,13.99
2019-04-07T09:27:58.361Z,11.40
2019-04-07T09:28:58.715Z,11.40
2019-04-07T09:29:58.919Z,11.40
2019-04-07T09:31:01.111Z,11.40
2019-04-07T09:31:58.685Z,11.40
2019-04-07T09:32:58.798Z,11.40
2019-04-07T09:33:58.208Z,11.40
2019-04-07T09:34:58.122Z,11.40
2019-04-07T09:35:59.218Z,11.40
2019-04-07T09:36:59.000Z,11.40
2019-04-07T09:37:58.765Z,11.50
2019-04-07T09:39:01.819Z,11.50
2019-04-07T09:40:01.158Z,11.50
2019-04-07T09:40:58.443Z,11.50
2019-04-07T09:41:58.376Z,11.50
2019-04-07T09:43:00.956Z,11.50
2019-04-07T09:44:01.165Z,11.50
2019-04-07T09:44:58.521Z,11.50
2019-04-07T09:45:58.359Z,11.50
2019-04-07T09:46:58.625Z,11.50
2019-04-07T09:47:58.738Z,13.90
2019-04-07T09:48:58.752Z,13.90
2019-04-07T09:49:58.435Z,13.90
2019-04-07T09:51:02.394Z,13.90
2019-04-07T09:51:58.146Z,13.90
2019-04-07T09:52:58.213Z,13.90
2019-04-07T09:53:58.758Z,13.90
2019-04-07T09:54:58.647Z,13.90
2019-04-07T09:55:59.127Z,13.90
2019-04-07T09:56:58.804Z,13.90
2019-04-07T09:57:58.169Z,12.60
2019-04-07T09:58:58.154Z,12.60
2019-04-07T09:59:58.224Z,12.60
2019-04-07T10:00:58.464Z,12.60
2019-04-07T10:02:00.280Z,12.60
2019-04-07T10:02:58.143Z,12.60
2019-04-07T10:03:58.217Z,12.60
2019-04-07T10:04:58.149Z,12.60
2019-04-07T10:05:58.204Z,12.60
2019-04-07T10:06:58.222Z,12.60
2019-04-07T10:07:58.898Z,13.80
2019-04-07T10:08:58.831Z,13.80
2019-04-07T10:10:08.541Z,13.80
2019-04-07T10:10:58.332Z,13.80
2019-04-07T10:11:58.376Z,13.80
2019-04-07T10:12:58.074Z,13.80
2019-04-07T10:13:58.193Z,13.80
2019-04-07T10:14:58.337Z,13.80
2019-04-07T10:15:58.180Z,13.80
2019-04-07T10:16:58.173Z,13.80
2019-04-07T10:17:58.718Z,16.20
2019-04-07T10:18:58.215Z,16.20
2019-04-07T10:19:58.818Z,16.20
2019-04-07T10:20:58.749Z,16.20
2019-04-07T10:22:00.500Z,16.20
2019-04-07T10:22:58.224Z,16.20
2019-04-07T10:23:59.232Z,16.20
2019-04-07T10:24:58.341Z,16.20
2019-04-07T10:25:58.438Z,16.20
2019-04-07T10:26:58.817Z,16.20
2019-04-07T10:27:58.301Z,16.20
2019-04-07T10:28:58.251Z,13.99
2019-04-07T10:29:58.180Z,13.99
2019-04-07T10:30:58.599Z,13.99
2019-04-07T10:31:58.139Z,13.99
2019-04-07T10:32:58.450Z,13.99
2019-04-07T10:33:58.361Z,13.99
2019-04-07T10:34:59.169Z,13.99
2019-04-07T10:35:58.302Z,13.99
2019-04-07T10:36:59.950Z,13.99
2019-04-07T10:37:58.245Z,13.99
2019-04-07T10:38:58.195Z,13.80
2019-04-07T10:39:59.494Z,13.80
2019-04-07T10:40:59.357Z,13.80
2019-04-07T10:41:58.901Z,13.80
2019-04-07T10:42:58.450Z,13.80
2019-04-07T10:43:58.984Z,13.80
2019-04-07T10:44:58.389Z,13.80
2019-04-07T10:45:58.719Z,13.80
2019-04-07T10:46:58.137Z,13.80
2019-04-07T10:47:58.168Z,13.80
2019-04-07T10:48:59.058Z,14.50
2019-04-07T10:50:03.975Z,14.50
2019-04-07T10:50:58.996Z,14.50
2019-04-07T10:51:59.268Z,14.50
2019-04-07T10:52:58.253Z,14.50
2019-04-07T10:53:58.420Z,14.50
2019-04-07T10:54:58.420Z,14.50
2019-04-07T10:55:58.258Z,14.50
2019-04-07T10:56:58.192Z,14.50
2019-04-07T10:57:58.497Z,14.50
2019-04-07T10:58:58.334Z,14.00
2019-04-07T10:59:58.121Z,14.00
2019-04-07T11:00:58.667Z,14.00
2019-04-07T11:01:58.209Z,14.00
2019-04-07T11:02:58.176Z,14.00
2019-04-07T11:03:58.240Z,14.00
2019-04-07T11:04:58.153Z,14.00
2019-04-07T11:05:58.285Z,14.00
2019-04-07T11:06:58.643Z,14.00
2019-04-07T11:07:58.750Z,14.00
2019-04-07T11:08:58.953Z,14.70
2019-04-07T11:09:58.914Z,14.70
2019-04-07T11:10:58.192Z,14.70
2019-04-07T11:11:58.797Z,14.70
2019-04-07T11:12:58.249Z,14.70
2019-04-07T11:13:58.767Z,14.70
2019-04-07T11:14:58.968Z,14.70
2019-04-07T11:15:59.124Z,14.70
2019-04-07T11:17:00.345Z,14.70
2019-04-07T11:17:58.231Z,14.70
2019-04-07T11:18:58.575Z,14.40
2019-04-07T11:19:59.036Z,14.40
2019-04-07T11:20:58.191Z,14.40
2019-04-07T11:21:58.189Z,14.40
2019-04-07T11:22:58.265Z,14.40
2019-04-07T11:23:58.934Z,14.40
2019-04-07T11:24:58.985Z,14.40
2019-04-07T11:25:58.267Z,14.40
2019-04-07T11:26:58.218Z,14.40
2019-04-07T11:27:58.299Z,14.40
2019-04-07T11:28:58.276Z,15.99
2019-04-07T11:29:58.439Z,15.99
2019-04-07T11:30:58.522Z,15.99
2019-04-07T11:31:58.296Z,15.99
2019-04-07T11:32:58.889Z,15.99
2019-04-07T11:33:58.839Z,15.99
2019-04-07T11:34:58.488Z,15.99
2019-04-07T11:35:58.515Z,15.99
2019-04-07T11:36:58.216Z,15.99
2019-04-07T11:37:58.435Z,15.99
2019-04-07T11:38:58.551Z,13.90
2019-04-07T11:39:59.010Z,13.90
2019-04-07T11:40:58.208Z,13.90
2019-04-07T11:41:59.027Z,13.90
2019-04-07T11:42:58.888Z,13.90
2019-04-07T11:43:58.663Z,13.90
2019-04-07T11:44:58.564Z,13.90
2019-04-07T11:46:02.221Z,13.90
2019-04-07T11:46:58.282Z,13.90
2019-04-07T11:47:59.080Z,13.90
2019-04-07T11:48:59.002Z,13.60
2019-04-07T11:49:59.196Z,13.60
2019-04-07T11:50:58.759Z,13.60
2019-04-07T11:51:58.223Z,13.60
2019-04-07T11:52:58.303Z,13.60
2019-04-07T11:53:58.834Z,13.60
2019-04-07T11:54:58.297Z,13.60
2019-04-07T11:56:58.967Z,13.60
2019-04-07T11:58:09.868Z,13.60
2019-04-07T11:58:59.041Z,14.90
2019-04-07T11:59:58.307Z,14.90
2019-04-07T12:00:59.198Z,14.90
2019-04-07T12:01:58.605Z,14.90
2019-04-07T12:02:58.233Z,14.90
2019-04-07T12:03:59.810Z,14.90
2019-04-07T12:04:58.944Z,14.90
2019-04-07T12:05:58.252Z,14.90
2019-04-07T12:06:58.304Z,14.90
2019-04-07T12:07:58.798Z,14.90
2019-04-07T12:08:58.929Z,14.60
2019-04-07T12:09:58.485Z,14.60
2019-04-07T12:11:02.178Z,14.60
2019-04-07T12:11:58.351Z,14.60
2019-04-07T12:12:59.115Z,14.60
2019-04-07T12:13:58.705Z,14.60
2019-04-07T12:14:58.876Z,14.60
2019-04-07T12:15:58.270Z,14.60
2019-04-07T12:17:00.310Z,14.60
2019-04-07T12:17:59.116Z,14.60
2019-04-07T12:18:59.076Z,12.60
2019-04-07T12:19:59.098Z,12.60
2019-04-07T12:21:00.906Z,12.60
2019-04-07T12:21:58.255Z,12.60
2019-04-07T12:22:58.329Z,12.60
2019-04-07T12:23:58.370Z,12.60
2019-04-07T12:25:01.710Z,12.60
2019-04-07T12:25:58.995Z,12.60
2019-04-07T12:27:00.729Z,12.60
2019-04-07T12:27:58.251Z,12.60
2019-04-07T12:28:58.326Z,13.40
2019-04-07T12:29:58.254Z,13.40
2019-04-07T12:30:58.871Z,13.40
2019-04-07T12:31:58.334Z,13.40
2019-04-07T12:32:58.621Z,13.40
2019-04-07T12:33:58.537Z,13.40
2019-04-07T12:34:58.327Z,13.40
2019-04-07T12:35:58.614Z,13.40
2019-04-07T12:37:02.425Z,13.40
2019-04-07T12:37:59.536Z,13.40
2019-04-07T12:38:58.549Z,12.50
2019-04-07T12:39:58.268Z,12.50
2019-04-07T12:41:11.442Z,12.50
2019-04-07T12:41:59.452Z,12.50
2019-04-07T12:42:59.156Z,12.50
2019-04-07T12:43:58.334Z,12.50
2019-04-07T12:44:58.340Z,12.50
2019-04-07T12:45:59.310Z,12.50
2019-04-07T12:46:58.369Z,12.50
2019-04-07T12:47:58.381Z,12.50
2019-04-07T12:48:58.695Z,14.90
2019-04-07T12:49:58.420Z,14.90
2019-04-07T12:50:58.468Z,14.90
2019-04-07T12:51:59.033Z,14.90
2019-04-07T12:53:02.177Z,14.90
2019-04-07T12:53:58.565Z,14.90
2019-04-07T12:54:59.289Z,14.90
2019-04-07T12:56:00.820Z,14.90